Republic, Pennsylvania
Current Conditions -  °F | °C
As of 3:53 PM on Friday 31 Oct 2014 (Local Time) from KMGW Reporting Station
Overcast Overcast  
Wind Chill: 45°   Ceiling: 3700
Heat Index: 48°   Visibility: 10mi
Dew Point: 36°   Wind: 6mph
Humidity: 63%   Direction: 310°NW
Pressure: 29.85"   Gusts: NA
Location:  39.96°N, 79.88°W
Report Text: KMGW 311953Z 31005KT 10SM OVC037 09/02 A2985 RMK AO2 SLP111 T00890022
Loading
Personal Weather Stations






























Interactive Weather Map
Tropical Storm Tracking
New forecast layout! Learn more

10-Day Weather Forecast

Advertisements
Track Severe Weather on mobile